• Join FlightAware (Why Join?)
  • Login
  • US Flag 
02:23PM EDT


 

Airport Tracker/Info


-or-


 

Live Flight TrackerFlight Track Log ✈ AAY843 ✈ 05-Jan-2014 ✈ KSYR - KPIE

Flight Track Log - Related Links

Times and Time Zones

All times are in EST time to prevent confusion due to time zone crossing. See the AAY843 flight status page for this flight to view local times or setup timezone preferences in your user account.

Time Position Orientation Groundspeed Altitude Reporting Facility
EST Latitude Longitude Course Direction KTS MPH feet Rate Location/Type
12:32PM 43.1103 -76.0786 99° East 168 193 1,600  Level Boston Center
12:32PM 43.1069 -76.0483 99° East 181 208 2,200 1,980 Climbing Boston Center
12:33PM 43.0556 -76.0353 169° South 236 272 4,400 2,160 Climbing Boston Center
12:34PM 43.0514 -76.0414 227° Southwest 234 269 5,000 3,120 Climbing Boston Center
12:34PM 43.0064 -76.0869 217° Southwest 223 257 7,600 2,820 Climbing Boston Center
12:35PM 43.0011 -76.0942 225° Southwest 227 261 7,900 1,860 Climbing Boston Center
12:36PM 42.9489 -76.1483 217° Southwest 234 269 10,100 1,140 Climbing Boston Center
12:37PM 42.8850 -76.2169 218° Southwest 241 277 10,300 960 Climbing Boston Center
12:38PM 42.8289 -76.2767 218° Southwest 251 289 12,100 1,320 Climbing Boston Center
12:39PM 42.7678 -76.3400 217° Southwest 303 349 13,100 1,860 Climbing Boston Center
12:40PM 42.6797 -76.4300 217° Southwest 325 374 16,000 1,860 Climbing Boston Center
12:41PM 42.6067 -76.5067 218° Southwest 330 380 17,000 1,320 Climbing Boston Center
12:42PM 42.5144 -76.5369 194° South 345 397 18,700 1,260 Climbing Boston Center
12:43PM 42.4144 -76.5556 188° South 354 407 19,600 1,140 Climbing Boston Center
12:44PM 42.3114 -76.5769 189° South 367 422 21,100 1,440 Climbing Boston Center
12:45PM 42.2344 -76.5936 189° South 373 429 22,000 1,200 Climbing New York Center
12:46PM 42.1400 -76.6103 187° South 378 435 23,100 1,200 Climbing New York Center
12:47PM 42.0328 -76.6344 190° South 389 448 24,500 1,380 Climbing New York Center
12:48PM 41.9233 -76.6581 189° South 397 457 25,900 1,560 Climbing New York Center
12:49PM 41.8139 -76.6792 188° South 397 457 27,700 1,680 Climbing New York Center
12:50PM 41.6981 -76.7050 189° South 392 451 29,300 1,380 Climbing New York Center
12:51PM 41.6014 -76.7214 187° South 392 451 30,500 1,080 Climbing New York Center
12:52PM 41.4961 -76.7425 189° South 392 451 31,500 720 Climbing New York Center
12:53PM 41.3825 -76.7683 190° South 392 451 32,000 240 Climbing New York Center
12:54PM 41.2747 -76.7947 190° South 392 451 32,000  Level New York Center
12:55PM 41.1711 -76.8267 193° South 392 451 32,000  Level New York Center
12:56PM 41.0708 -76.8728 199° South 392 451 32,000  Level New York Center
12:57PM 40.9706 -76.9161 198° South 387 445 32,000  Level New York Center
12:58PM 40.8706 -76.9592 198° South 387 445 32,000  Level New York Center
12:59PM 40.7681 -77.0047 199° South 392 451 32,000  Level New York Center
01:00PM 40.6678 -77.0478 198° South 392 451 32,000  Level New York Center
01:01PM 40.5697 -77.0906 198° South 392 451 32,000  Level New York Center
01:02PM 40.4672 -77.1358 199° South 392 451 32,000  Level New York Center
01:04PM 40.2525 -77.2250 198° South 386 444 32,000  Level Washington Center
01:05PM 40.1542 -77.2689 199° South 386 444 32,000  Level Washington Center
01:06PM 40.0536 -77.3097 197° South 386 444 32,000  Level Washington Center
01:07PM 39.9528 -77.3533 198° South 381 438 32,000  Level Washington Center
01:08PM 39.8503 -77.3969 198° South 386 444 32,000  Level Washington Center
01:09PM 39.7517 -77.4403 199° South 386 444 32,000 -600 Level Washington Center
01:10PM 39.6508 -77.4833 198° South 386 444 30,900 -1,020 Descending Washington Center
01:11PM 39.5481 -77.5267 198° South 386 444 30,000 -480 Descending Washington Center
01:12PM 39.4453 -77.5694 198° South 386 444 30,000  Level Washington Center
01:13PM 39.3425 -77.6122 198° South 386 444 30,000  Level Washington Center
01:14PM 39.2375 -77.6550 198° South 386 444 30,000  Level Washington Center
01:15PM 39.1347 -77.6975 198° South 386 444 30,000  Level Washington Center
01:16PM 39.0422 -77.7350 197° South 386 444 30,000  Level Washington Center
01:17PM 38.9267 -77.7850 199° South 391 450 30,000  Level Washington Center
01:18PM 38.8344 -77.8222 197° South 391 450 30,000  Level Washington Center
01:19PM 38.7189 -77.8692 198° South 391 450 30,000  Level Washington Center
01:20PM 38.6158 -77.9114 198° South 391 450 30,000  Level Washington Center
01:21PM 38.5108 -77.9558 198° South 391 450 30,000  Level Washington Center
01:22PM 38.4056 -77.9975 197° South 391 450 30,000  Level Washington Center
01:23PM 38.3047 -78.0367 197° South 391 450 30,000 600 Level Washington Center
01:24PM 38.2017 -78.0808 199° South 391 450 31,200 960 Climbing Washington Center
01:25PM 38.1025 -78.1303 201° Southwest 386 444 32,000 360 Climbing Washington Center
01:26PM 38.0117 -78.1906 208° Southwest 379 436 32,000  Level Washington Center
01:27PM 37.9164 -78.2503 206° Southwest 379 436 32,000  Level Washington Center
01:28PM 37.8297 -78.3050 207° Southwest 379 436 32,000  Level Washington Center
01:29PM 37.7347 -78.3622 205° Southwest 379 436 32,000  Level Washington Center
01:30PM 37.6392 -78.4242 207° Southwest 379 436 32,000  Level Washington Center
01:31PM 37.5419 -78.4833 206° Southwest 385 443 32,000  Level Washington Center
01:32PM 37.4444 -78.5425 206° Southwest 390 449 32,000  Level Washington Center
01:33PM 37.3406 -78.6092 207° Southwest 390 449 32,000  Level Washington Center
01:34PM 37.2433 -78.6678 206° Southwest 390 449 32,000  Level Washington Center
01:35PM 37.1436 -78.7264 205° Southwest 390 449 32,000  Level Washington Center
01:36PM 37.0503 -78.7850 207° Southwest 390 449 32,000  Level Washington Center
01:37PM 36.9547 -78.8433 206° Southwest 385 443 32,000  Level Washington Center
01:38PM 36.8678 -78.8942 205° Southwest 385 443 32,000  Level Washington Center
01:39PM 36.7725 -78.9525 206° Southwest 385 443 32,000  Level Washington Center
01:40PM 36.6769 -79.0106 206° Southwest 385 443 32,000  Level Washington Center
01:41PM 36.5736 -79.0472 196° South 385 443 32,000  Level Washington Center
01:42PM 36.4661 -79.0814 194° South 390 449 32,000  Level Washington Center
01:43PM 36.3589 -79.1075 191° South 395 455 32,000  Level Washington Center
01:44PM 36.2517 -79.1361 192° South 395 455 32,000  Level Washington Center
01:45PM 36.1444 -79.1672 193° South 395 455 32,000  Level Washington Center
01:46PM 36.0350 -79.2008 194° South 395 455 32,000  Level Washington Center
01:47PM 35.9214 -79.2289 191° South 400 460 32,000  Level Washington Center
01:48PM 35.8161 -79.2600 193° South 400 460 32,000  Level Washington Center
01:49PM 35.7044 -79.2908 193° South 395 455 32,000  Level Washington Center
01:50PM 35.5950 -79.3214 193° South 400 460 32,000  Level Washington Center
01:51PM 35.4919 -79.3497 193° South 392 451 32,000  Level Washington Center
01:52PM 35.3700 -79.3822 192° South 397 457 32,000 420 Level Washington Center
01:53PM 35.2625 -79.4128 193° South 397 457 32,900 840 Climbing Washington Center
01:54PM 35.1553 -79.4406 192° South 397 457 33,800 540 Climbing Washington Center
01:55PM 35.0500 -79.4686 192° South 392 451 34,000 60 Climbing Washington Center
01:56PM 34.9425 -79.4989 193° South 397 457 34,000  Level Washington Center
01:58PM 34.7144 -79.5586 192° South 414 476 34,000  Level Jacksonville Center
01:59PM 34.6047 -79.5883 193° South 409 471 34,000  Level Jacksonville Center
02:00PM 34.4969 -79.6175 193° South 409 471 34,000  Level Jacksonville Center
02:01PM 34.3872 -79.6469 192° South 409 471 34,000  Level Jacksonville Center
02:02PM 34.2906 -79.7058 207° Southwest 404 465 34,000  Level Jacksonville Center
02:03PM 34.2025 -79.7692 211° Southwest 384 442 34,000  Level Jacksonville Center
02:04PM 34.1083 -79.8378 211° Southwest 389 448 34,000  Level Jacksonville Center
02:05PM 34.0161 -79.9061 212° Southwest 394 453 34,000  Level Jacksonville Center
02:06PM 33.9194 -79.9719 209° Southwest 399 459 34,000  Level Jacksonville Center
02:07PM 33.8250 -80.0375 210° Southwest 399 459 34,000  Level Jacksonville Center
02:08PM 33.7306 -80.1056 211° Southwest 399 459 34,000  Level Jacksonville Center
02:09PM 33.6381 -80.1708 210° Southwest 399 459 34,000  Level Jacksonville Center
02:10PM 33.5436 -80.2386 211° Southwest 399 459 34,000  Level Jacksonville Center
02:11PM 33.4511 -80.3061 211° Southwest 399 459 34,000  Level Jacksonville Center
02:12PM 33.3461 -80.3789 210° Southwest 399 459 34,000  Level Jacksonville Center
02:13PM 33.2533 -80.4433 210° Southwest 399 459 34,000  Level Jacksonville Center
02:14PM 33.1567 -80.5106 210° Southwest 399 459 34,000  Level Jacksonville Center
02:15PM 33.0597 -80.5753 209° Southwest 399 459 34,000  Level Jacksonville Center
02:16PM 32.9647 -80.6419 210° Southwest 399 459 34,000  Level Jacksonville Center
02:17PM 32.8678 -80.7086 210° Southwest 399 459 34,000  Level Jacksonville Center
02:18PM 32.7731 -80.7728 210° Southwest 399 459 34,000  Level Jacksonville Center
02:19PM 32.6781 -80.8392 210° Southwest 399 459 34,000  Level Jacksonville Center
02:20PM 32.5811 -80.9056 210° Southwest 400 460 34,000  Level Jacksonville Center
02:21PM 32.4839 -80.9717 210° Southwest 400 460 34,000  Level Jacksonville Center
02:22PM 32.3908 -81.0375 211° Southwest 400 460 34,000 -60 Level Jacksonville Center
02:23PM 32.2917 -81.1033 209° Southwest 410 472 33,900 -600 Descending Jacksonville Center
02:24PM 32.1925 -81.1692 209° Southwest 415 478 32,900 -960 Descending Jacksonville Center
02:25PM 32.0994 -81.2372 212° Southwest 409 471 32,000 -960 Descending Jacksonville Center
02:26PM 32.0106 -81.3172 217° Southwest 403 464 31,000 -960 Descending Jacksonville Center
02:27PM 31.9300 -81.3822 214° Southwest 398 458 30,100 -540 Descending Jacksonville Center
02:28PM 31.8286 -81.4669 215° Southwest 408 470 30,000 -60 Descending Jacksonville Center
02:29PM 31.7397 -81.5417 216° Southwest 408 470 30,000  Level Jacksonville Center
02:30PM 31.6444 -81.6211 215° Southwest 408 470 30,000  Level Jacksonville Center
02:31PM 31.5489 -81.6786 207° Southwest 402 463 30,000  Level Jacksonville Center
02:32PM 31.4469 -81.7139 196° South 414 476 30,000  Level Jacksonville Center
02:33PM 31.3347 -81.7542 197° South 420 483 30,000  Level Jacksonville Center
02:34PM 31.2222 -81.7944 197° South 420 483 30,000  Level Jacksonville Center
02:35PM 31.1119 -81.8369 198° South 420 483 30,000  Level Jacksonville Center
02:36PM 30.9994 -81.8747 196° South 420 483 30,000  Level Jacksonville Center
02:37PM 30.8850 -81.9122 196° South 420 483 30,000  Level Jacksonville Center
02:38PM 30.7725 -81.9519 197° South 420 483 30,000  Level Jacksonville Center
02:39PM 30.6581 -81.9919 197° South 420 483 30,000  Level Jacksonville Center
02:40PM 30.5350 -82.0292 195° South 420 483 30,000  Level Jacksonville Center
02:41PM 30.4206 -82.0711 198° South 420 483 30,000  Level Jacksonville Center
02:42PM 30.3058 -82.1083 196° South 420 483 30,000  Level Jacksonville Center
02:43PM 30.1914 -82.1500 197° South 425 489 30,000  Level Jacksonville Center
02:44PM 30.0786 -82.1869 196° South 425 489 30,000 -60 Level Jacksonville Center
02:45PM 29.9600 -82.2333 199° South 431 496 29,900 -660 Descending Jacksonville Center
02:46PM 29.8411 -82.2508 187° South 437 503 28,700 -1,140 Descending Jacksonville Center
02:47PM 29.7158 -82.2492 179° South 437 503 27,700 -1,020 Descending Jacksonville Center
02:48PM 29.5928 -82.2500 180° South 443 510 26,700 -960 Descending Jacksonville Center
02:49PM 29.4675 -82.2508 180° South 448 516 25,800 -1,380 Descending Jacksonville Center
02:50PM 29.3422 -82.2517 180° South 453 521 24,000 -2,160 Descending Jacksonville Center
02:51PM 29.2211 -82.2525 180° South 453 521 21,500 -2,820 Descending Jacksonville Center
02:52PM 29.1042 -82.2556 181° South 441 507 18,400 -2,880 Descending Jacksonville Center
02:53PM 28.9914 -82.2589 181° South 424 488 15,800 -2,460 Descending Jacksonville Center
02:54PM 28.8956 -82.2594 180° South 408 470 13,500 -1,020 Descending Jacksonville Center
02:56PM 28.7500 -82.2667 182° South 276 318 13,100 -180 Descending Tampa TRACON
02:57PM 28.6667 -82.2667 180° South 279 321 13,100 -540 Level Tampa TRACON
02:58PM 28.5833 -82.2500 170° South 285 328 12,100 -1,020 Descending Tampa TRACON
02:59PM 28.5333 -82.3167 230° Southwest 268 308 11,100 -1,020 Descending Tampa TRACON
03:00PM 28.5167 -82.4000 257° West 279 321 10,100 -960 Descending Tampa TRACON
03:00PM 28.4833 -82.4667 240° Southwest 272 313 9,300 -1,320 Descending Tampa TRACON
03:01PM 28.4500 -82.5500 246° West 262 302 7,600 -1,620 Descending Tampa TRACON
03:02PM 28.4167 -82.6167 240° Southwest 267 307 6,100 -1,380 Descending Tampa TRACON
03:04PM 28.3833 -82.7000 246° West 262 302 4,800 -1,020 Descending Tampa TRACON
03:04PM 28.3333 -82.7167 196° South 251 289 4,100 -420 Descending Tampa TRACON
03:05PM 28.2667 -82.7167 180° South 254 292 4,100 -60 Level Tampa TRACON
03:07PM 28.1833 -82.7000 170° South 257 296 4,000 -540 Descending Tampa TRACON
03:08PM 28.1167 -82.7000 180° South 231 266 3,000 -960 Descending Tampa TRACON
03:09PM 28.0667 -82.6833 164° South 198 228 2,100 -720 Descending Tampa TRACON
03:10PM 28.0000 -82.6667 168° South 165 190 1,600 -540 Descending Tampa TRACON
03:11PM 27.9667 -82.6833 204° Southwest 136 157 1,100 -720 Descending Tampa TRACON
03:12PM 27.9333 -82.7000 204° Southwest 142 163 300 -840 Descending Tampa TRACON
03:14PM 27.9100 -82.6875 155° Southeast  Level Estimated
03:21PM 27.9100 -82.6875 260° West  Level Estimated